Terminal Aerodrome Forecast
Issued by NWS Jackson, KY

Home | Current Version | Previous Version | Text Only | Print | Product List | Glossary On
Versions: 1 2 3 4 5 6 7 8 9 10 11 12 13 14 15
604
FTUS43 KJKL 170521
TAFLOZ
TAF
KLOZ 170521Z 1706/1806 VRB06KT P6SM SCT200 BKN250
     FM171200 VRB03KT P6SM SCT060 BKN100
     FM171500 VRB03KT P6SM VCSH SCT030 OVC050
     FM172200 VRB03KT 6SM -RA BR OVC025
     FM180300 VRB03KT P6SM -RA BKN015=

USA.gov is the U.S. government's official web portal to all federal, state and local government web resources and services.